Time;durP1;ratioP1;P1;durP2;ratioP2;P2;SDS_P1;SDS_P2;PMS_P1;PMS_P2;Temp;Humidity;BMP_temperature;BMP_pressure;BME280_temperature;BME280_humidity;BME280_pressure;Samples;Min_cycle;Max_cycle;Signal;HPM_P1;HPM_P2
2022/06/11 00:00:39;;;;;;;4.60;3.75;;;22.50;97.60;;;;;;6242990;28;89091;-64
2022/06/11 00:03:43;;;;;;;3.67;3.38;;;22.40;97.50;;;;;;6232868;28;87954;-63
2022/06/11 00:06:49;;;;;;;3.70;3.20;;;22.40;97.30;;;;;;6245147;27;88951;-64
2022/06/11 00:09:52;;;;;;;3.53;3.22;;;22.40;97.20;;;;;;6243288;27;89144;-64
2022/06/11 00:12:54;;;;;;;3.70;3.40;;;22.40;97.20;;;;;;6250171;27;88462;-63
2022/06/11 00:15:57;;;;;;;3.80;3.50;;;22.40;97.00;;;;;;6231464;27;88139;-64
2022/06/11 00:19:02;;;;;;;3.63;3.33;;;22.40;96.90;;;;;;6235054;27;89026;-64
2022/06/11 00:22:05;;;;;;;4.15;3.70;;;22.40;97.00;;;;;;6247155;27;89351;-64
2022/06/11 00:25:08;;;;;;;4.53;3.38;;;22.40;97.00;;;;;;6245753;27;89339;-64
2022/06/11 00:28:10;;;;;;;3.63;3.33;;;22.40;96.90;;;;;;6254401;27;88985;-64
2022/06/11 00:31:12;;;;;;;4.28;3.63;;;22.40;96.80;;;;;;6240071;27;89140;-64
2022/06/11 00:34:16;;;;;;;4.05;3.30;;;22.40;96.70;;;;;;6248821;27;89133;-64
2022/06/11 00:37:20;;;;;;;4.13;3.70;;;22.40;96.80;;;;;;6249738;27;89133;-64
2022/06/11 00:40:25;;;;;;;4.15;3.42;;;22.40;96.70;;;;;;6238926;27;89001;-64
2022/06/11 00:43:29;;;;;;;3.78;3.40;;;22.40;96.60;;;;;;6254512;27;88272;-64
2022/06/11 00:46:52;;;;;;;3.80;3.45;;;22.40;96.60;;;;;;6238537;27;89097;-64
2022/06/11 00:49:59;;;;;;;3.55;3.30;;;22.40;96.60;;;;;;6244017;27;89411;-64
2022/06/11 00:53:02;;;;;;;3.17;2.95;;;22.40;96.50;;;;;;6243986;27;90371;-64
2022/06/11 00:56:07;;;;;;;4.35;3.85;;;22.40;96.40;;;;;;6243032;27;89201;-63
2022/06/11 00:59:15;;;;;;;3.47;3.17;;;22.40;96.40;;;;;;6249455;27;89270;-64
2022/06/11 01:02:17;;;;;;;3.60;3.30;;;22.40;96.40;;;;;;6245456;27;89088;-63
2022/06/11 01:05:24;;;;;;;3.60;3.30;;;22.40;96.40;;;;;;6248329;27;88817;-64
2022/06/11 01:08:39;;;;;;;3.33;3.03;;;22.40;96.40;;;;;;6245694;27;89060;-64
2022/06/11 01:11:53;;;;;;;3.70;3.40;;;22.40;96.30;;;;;;6256399;27;89087;-64
2022/06/11 01:15:04;;;;;;;4.30;3.90;;;22.40;96.40;;;;;;6264926;27;88414;-64
2022/06/11 01:18:18;;;;;;;3.70;3.40;;;22.40;96.40;;;;;;6255321;27;88226;-64
2022/06/11 01:21:30;;;;;;;3.97;3.58;;;22.40;96.40;;;;;;6243330;27;87941;-64
2022/06/11 01:24:55;;;;;;;4.13;3.33;;;22.40;96.30;;;;;;6242976;27;90015;-64
2022/06/11 01:28:13;;;;;;;3.85;3.55;;;22.40;96.30;;;;;;6249374;27;89441;-63
2022/06/11 01:31:21;;;;;;;3.60;3.30;;;22.40;96.40;;;;;;6247082;27;89128;-64
2022/06/11 01:34:35;;;;;;;3.53;3.22;;;22.40;96.40;;;;;;6255084;27;89095;-64
2022/06/11 01:37:41;;;;;;;3.53;3.08;;;22.40;96.80;;;;;;6246276;27;89089;-63
2022/06/11 01:40:48;;;;;;;3.60;3.30;;;22.40;96.40;;;;;;6257841;27;89406;-64
2022/06/11 01:43:54;;;;;;;3.67;3.30;;;22.30;96.30;;;;;;6256474;27;89325;-64
2022/06/11 01:46:59;;;;;;;4.75;3.88;;;22.30;96.30;;;;;;6254396;27;88901;-64
2022/06/11 01:50:02;;;;;;;4.28;3.80;;;22.40;96.30;;;;;;6237050;27;89095;-64
2022/06/11 01:53:26;;;;;;;4.10;3.70;;;22.30;96.30;;;;;;6254683;27;89111;-64
2022/06/11 01:57:07;;;;;;;4.78;3.53;;;22.30;96.30;;;;;;6248582;27;90097;-64
2022/06/11 02:00:23;;;;;;;3.78;3.47;;;22.40;96.40;;;;;;6225383;27;89448;-64
2022/06/11 02:03:36;;;;;;;4.03;3.65;;;22.40;96.40;;;;;;6244871;27;89034;-64
2022/06/11 02:06:47;;;;;;;3.85;3.42;;;22.40;96.40;;;;;;6242728;27;89001;-64
2022/06/11 02:09:58;;;;;;;3.90;3.50;;;22.30;96.40;;;;;;6244432;27;89090;-64
2022/06/11 02:13:06;;;;;;;3.80;3.50;;;22.30;96.50;;;;;;6256135;27;89905;-64
2022/06/11 02:16:16;;;;;;;4.13;3.50;;;22.30;96.60;;;;;;6252076;27;89216;-64
2022/06/11 02:19:23;;;;;;;3.88;3.50;;;22.30;96.40;;;;;;6257423;27;88609;-64
2022/06/11 02:22:31;;;;;;;3.78;3.42;;;22.30;96.50;;;;;;6257976;27;88095;-64
2022/06/11 02:25:38;;;;;;;3.50;3.20;;;22.30;96.60;;;;;;6256551;27;89060;-64
2022/06/11 02:28:43;;;;;;;3.50;3.20;;;22.40;96.70;;;;;;6234138;27;88960;-63
2022/06/11 02:31:52;;;;;;;3.75;3.28;;;22.30;96.70;;;;;;6252464;27;89168;-64
2022/06/11 02:35:03;;;;;;;3.55;3.25;;;22.30;96.60;;;;;;6240738;27;87993;-64
2022/06/11 02:38:09;;;;;;;4.40;3.58;;;22.30;96.50;;;;;;6233696;28;88421;-64
2022/06/11 02:41:16;;;;;;;3.78;3.40;;;22.30;96.60;;;;;;6243229;27;89158;-64
2022/06/11 02:44:18;;;;;;;3.70;3.40;;;22.30;96.60;;;;;;6250876;27;89341;-64
2022/06/11 02:47:22;;;;;;;3.70;3.40;;;22.30;96.70;;;;;;6252536;27;90829;-63
2022/06/11 02:50:28;;;;;;;3.78;3.30;;;22.30;96.70;;;;;;6253131;27;88371;-64
2022/06/11 02:53:30;;;;;;;4.18;3.40;;;22.30;96.70;;;;;;6247492;27;88993;-64
2022/06/11 02:56:32;;;;;;;3.72;3.42;;;22.30;96.80;;;;;;6236830;27;87937;-63
2022/06/11 02:59:35;;;;;;;3.90;3.50;;;22.30;96.80;;;;;;6243239;27;90864;-64
2022/06/11 03:02:37;;;;;;;3.30;3.00;;;22.30;96.80;;;;;;6256495;27;89192;-64
2022/06/11 03:05:41;;;;;;;5.55;3.70;;;22.30;96.70;;;;;;6254933;27;89239;-64
2022/06/11 03:08:44;;;;;;;5.97;4.00;;;22.30;96.80;;;;;;6257423;27;87980;-64
2022/06/11 03:11:46;;;;;;;4.75;3.50;;;22.30;96.80;;;;;;6257598;27;88967;-64
2022/06/11 03:14:48;;;;;;;4.15;3.75;;;22.30;96.80;;;;;;6255362;27;87816;-64
2022/06/11 03:17:52;;;;;;;3.83;3.53;;;22.30;96.90;;;;;;6247235;27;89344;-63
2022/06/11 03:20:55;;;;;;;4.05;3.65;;;22.20;97.00;;;;;;6245283;27;88333;-64
2022/06/11 03:23:57;;;;;;;4.45;3.90;;;22.30;97.00;;;;;;6236370;27;89186;-64
2022/06/11 03:26:59;;;;;;;3.85;3.55;;;22.20;96.90;;;;;;6245060;27;87981;-64
2022/06/11 03:30:02;;;;;;;3.95;3.22;;;22.20;96.90;;;;;;6233060;27;90018;-64
2022/06/11 03:33:04;;;;;;;3.53;3.22;;;22.20;97.00;;;;;;6247548;27;89184;-64
2022/06/11 03:36:10;;;;;;;3.90;3.50;;;22.20;96.90;;;;;;6246779;27;88964;-63
2022/06/11 03:39:15;;;;;;;3.80;3.40;;;22.30;97.00;;;;;;6246600;27;89026;-64
2022/06/11 03:42:18;;;;;;;4.10;3.40;;;22.30;97.00;;;;;;6249396;27;89149;-63
2022/06/11 03:45:21;;;;;;;3.90;3.55;;;22.20;97.00;;;;;;6244554;27;89100;-63
2022/06/11 03:48:23;;;;;;;4.22;3.83;;;22.30;97.00;;;;;;6237500;27;89047;-63
2022/06/11 03:51:27;;;;;;;4.57;4.18;;;22.30;97.10;;;;;;6251343;27;88334;-63
2022/06/11 03:54:29;;;;;;;5.32;4.57;;;22.30;97.10;;;;;;6248051;27;89152;-64
2022/06/11 03:57:31;;;;;;;8.25;5.20;;;22.20;97.10;;;;;;6253451;27;88812;-64
2022/06/11 04:03:59;;;;;;;5.80;5.20;;;22.30;97.20;;;;;;6243636;27;87306;-64
2022/06/11 04:07:02;;;;;;;5.70;5.10;;;22.30;97.20;;;;;;6252115;27;87917;-64
2022/06/11 04:10:05;;;;;;;5.95;5.20;;;22.30;97.20;;;;;;6241493;27;89020;-64
2022/06/11 04:13:08;;;;;;;4.88;4.38;;;22.20;97.20;;;;;;6237645;27;89501;-64
2022/06/11 04:16:22;;;;;;;6.20;5.00;;;22.30;97.30;;;;;;6238665;27;89054;-64
2022/06/11 04:19:27;;;;;;;5.50;4.82;;;22.20;97.20;;;;;;6239620;27;89121;-64
2022/06/11 04:22:31;;;;;;;4.88;4.47;;;22.20;97.20;;;;;;6237405;27;88410;-64
2022/06/11 04:25:32;;;;;;;5.00;4.50;;;22.20;97.20;;;;;;6244173;27;89113;-64
2022/06/11 04:28:35;;;;;;;5.93;4.63;;;22.20;97.20;;;;;;6231860;27;89011;-63
2022/06/11 04:31:38;;;;;;;5.15;4.45;;;22.20;97.60;;;;;;6255057;27;91391;-63
2022/06/11 04:34:40;;;;;;;4.88;4.47;;;22.30;97.20;;;;;;6254850;27;89085;-63
2022/06/11 04:37:44;;;;;;;5.07;4.55;;;22.20;97.30;;;;;;6245797;27;89139;-64
2022/06/11 04:40:47;;;;;;;5.03;4.53;;;22.30;97.30;;;;;;6242553;27;87974;-63
2022/06/11 04:43:49;;;;;;;4.72;4.32;;;22.30;97.30;;;;;;6254670;27;88725;-64
2022/06/11 04:46:51;;;;;;;4.97;4.47;;;22.20;97.30;;;;;;6253001;27;89099;-63
2022/06/11 04:49:55;;;;;;;4.90;4.40;;;22.20;97.30;;;;;;6253624;27;88220;-64
2022/06/11 04:52:58;;;;;;;4.70;4.28;;;22.30;97.20;;;;;;6250693;27;88153;-64
2022/06/11 04:56:00;;;;;;;4.75;4.22;;;22.20;97.20;;;;;;6234830;27;89202;-63
2022/06/11 04:59:02;;;;;;;4.72;4.20;;;22.20;97.40;;;;;;6255335;27;89537;-64
2022/06/11 05:02:05;;;;;;;4.20;3.83;;;22.20;97.40;;;;;;6239495;27;90035;-63
2022/06/11 05:05:09;;;;;;;4.30;3.90;;;22.20;97.30;;;;;;6246147;27;89122;-64
2022/06/11 05:08:14;;;;;;;5.90;4.35;;;22.20;97.40;;;;;;6243622;27;87874;-64
2022/06/11 05:11:16;;;;;;;4.00;3.60;;;22.20;97.30;;;;;;6243872;27;89113;-64
2022/06/11 05:14:18;;;;;;;4.10;3.80;;;22.20;97.30;;;;;;6248948;27;89059;-63
2022/06/11 05:17:20;;;;;;;4.07;3.72;;;22.20;97.30;;;;;;6253045;27;89348;-64
2022/06/11 05:20:22;;;;;;;4.28;3.90;;;22.20;97.40;;;;;;6235851;27;89069;-64
2022/06/11 05:23:25;;;;;;;5.07;4.20;;;22.20;97.60;;;;;;6251169;27;88281;-63
2022/06/11 05:26:37;;;;;;;4.60;4.18;;;22.20;97.50;;;;;;6246088;27;89009;-64
2022/06/11 05:29:49;;;;;;;4.32;3.53;;;22.20;97.80;;;;;;6252295;27;89087;-63
2022/06/11 05:32:52;;;;;;;4.20;3.80;;;22.20;97.90;;;;;;6244674;27;90314;-64
2022/06/11 05:35:55;;;;;;;4.30;3.63;;;22.30;98.00;;;;;;6246678;27;88553;-64
2022/06/11 05:38:58;;;;;;;4.50;3.78;;;22.30;98.10;;;;;;6246895;27;89108;-63
2022/06/11 05:42:01;;;;;;;4.35;3.67;;;22.20;98.20;;;;;;6245485;27;88955;-64
2022/06/11 05:45:04;;;;;;;5.55;3.90;;;22.20;98.20;;;;;;6247635;27;89039;-63
2022/06/11 05:48:08;;;;;;;4.93;3.35;;;22.30;98.30;;;;;;6255916;27;89094;-63
2022/06/11 05:51:14;;;;;;;4.78;3.63;;;22.20;98.40;;;;;;6237838;27;87968;-64
2022/06/11 05:54:20;;;;;;;3.97;3.58;;;22.20;98.30;;;;;;6250513;27;88332;-64
2022/06/11 05:57:25;;;;;;;4.10;3.47;;;22.30;98.40;;;;;;6256465;27;89264;-64
2022/06/11 06:00:28;;;;;;;3.67;3.38;;;22.20;98.40;;;;;;6251868;27;87902;-63
2022/06/11 06:03:30;;;;;;;3.92;3.38;;;22.20;98.40;;;;;;6237468;27;90256;-63
2022/06/11 06:06:33;;;;;;;4.72;3.80;;;22.20;98.40;;;;;;6248989;27;89007;-64
2022/06/11 06:09:37;;;;;;;4.18;3.60;;;22.20;98.40;;;;;;6245044;27;89042;-63
2022/06/11 06:12:40;;;;;;;4.20;3.60;;;22.20;98.30;;;;;;6251232;27;88048;-64
2022/06/11 06:15:42;;;;;;;4.25;3.55;;;22.20;98.20;;;;;;6250926;28;89120;-63
2022/06/11 06:18:44;;;;;;;5.50;4.13;;;22.20;98.20;;;;;;6256769;27;89148;-64
2022/06/11 06:21:46;;;;;;;4.07;3.67;;;22.20;98.30;;;;;;6247920;27;89174;-64
2022/06/11 06:24:49;;;;;;;3.97;3.40;;;22.20;98.30;;;;;;6242530;27;87094;-64
2022/06/11 06:27:51;;;;;;;3.60;3.30;;;22.20;98.60;;;;;;6249626;27;89129;-63
2022/06/11 06:30:54;;;;;;;3.97;3.55;;;22.20;98.80;;;;;;6260199;27;89078;-64
2022/06/11 06:33:59;;;;;;;4.25;3.53;;;22.20;99.20;;;;;;6240795;27;89902;-64
2022/06/11 06:37:01;;;;;;;4.78;3.30;;;22.20;99.10;;;;;;6241459;28;89042;-64
2022/06/11 06:40:05;;;;;;;4.18;3.38;;;22.20;99.00;;;;;;6246380;27;87974;-64
2022/06/11 06:43:08;;;;;;;4.10;3.70;;;22.20;99.20;;;;;;6240306;28;89436;-63
2022/06/11 06:46:10;;;;;;;3.47;3.17;;;22.20;99.00;;;;;;6246254;28;89296;-64
2022/06/11 06:49:12;;;;;;;3.80;3.33;;;22.20;99.00;;;;;;6245947;28;89732;-64
2022/06/11 06:52:14;;;;;;;3.78;3.00;;;22.20;98.70;;;;;;6243841;27;89074;-64
2022/06/11 06:55:17;;;;;;;3.75;3.25;;;22.20;98.70;;;;;;6240360;28;87289;-64
2022/06/11 06:58:20;;;;;;;3.63;3.30;;;22.20;98.70;;;;;;6240366;27;89009;-64
2022/06/11 07:01:22;;;;;;;3.83;3.35;;;22.20;98.60;;;;;;6239556;27;89005;-64
2022/06/11 07:04:24;;;;;;;4.53;3.35;;;22.20;98.70;;;;;;6243916;28;90316;-63
2022/06/11 07:07:26;;;;;;;3.70;3.08;;;22.20;98.90;;;;;;6243769;27;90617;-64
2022/06/11 07:10:29;;;;;;;4.10;3.40;;;22.20;99.00;;;;;;6241680;28;89049;-64
2022/06/11 07:13:32;;;;;;;3.65;3.30;;;22.20;99.00;;;;;;6242395;27;89161;-63
2022/06/11 07:16:40;;;;;;;3.60;3.30;;;22.20;99.00;;;;;;6241460;28;89374;-64
2022/06/11 07:19:46;;;;;;;3.42;3.13;;;22.20;98.80;;;;;;6239338;27;89051;-64
2022/06/11 07:22:52;;;;;;;3.45;2.90;;;22.20;99.00;;;;;;6244408;28;89053;-63
2022/06/11 07:25:59;;;;;;;3.78;3.38;;;22.30;99.00;;;;;;6244609;27;88341;-64
2022/06/11 07:29:05;;;;;;;3.05;2.85;;;22.20;98.90;;;;;;6244503;28;89188;-64
2022/06/11 07:32:13;;;;;;;3.30;3.00;;;22.20;99.00;;;;;;6234953;28;89208;-64
2022/06/11 07:35:17;;;;;;;3.97;3.50;;;22.20;99.00;;;;;;6239822;27;88876;-64
2022/06/11 07:38:21;;;;;;;3.40;3.10;;;22.20;99.00;;;;;;6238445;28;89175;-63
2022/06/11 07:41:24;;;;;;;4.03;3.22;;;22.20;98.90;;;;;;6248256;27;89429;-63
2022/06/11 07:44:26;;;;;;;3.80;3.10;;;22.20;98.80;;;;;;6240709;27;90227;-64
2022/06/11 07:50:51;;;;;;;3.10;2.90;;;22.20;99.00;;;;;;6237410;28;87206;-64
2022/06/11 07:53:53;;;;;;;3.65;3.35;;;22.20;98.90;;;;;;6239042;27;89114;-64
2022/06/11 07:56:56;;;;;;;3.63;3.15;;;22.20;98.40;;;;;;6243037;27;88710;-64
2022/06/11 07:59:59;;;;;;;3.40;3.10;;;22.30;98.20;;;;;;6236355;28;89083;-64
2022/06/11 08:03:00;;;;;;;3.10;2.80;;;22.20;98.10;;;;;;6239987;27;89097;-63
2022/06/11 08:06:03;;;;;;;3.22;2.92;;;22.20;98.10;;;;;;6246115;27;90030;-64
2022/06/11 08:09:05;;;;;;;3.10;2.83;;;22.20;98.00;;;;;;6248103;27;89161;-63
2022/06/11 08:12:10;;;;;;;3.08;2.80;;;22.20;98.40;;;;;;6237872;28;89463;-63
2022/06/11 08:15:12;;;;;;;2.88;2.67;;;22.20;98.40;;;;;;6236713;27;89038;-63
2022/06/11 08:18:14;;;;;;;4.05;3.50;;;22.20;98.20;;;;;;6245546;27;89094;-63
2022/06/11 08:21:16;;;;;;;3.13;2.92;;;22.20;98.10;;;;;;6237480;27;88519;-63
2022/06/11 08:24:18;;;;;;;4.15;3.20;;;22.30;98.00;;;;;;6238824;27;89191;-64
2022/06/11 08:27:22;;;;;;;3.78;3.03;;;22.30;98.00;;;;;;6242986;27;88301;-63
2022/06/11 08:30:26;;;;;;;3.47;2.90;;;22.20;98.20;;;;;;6243877;27;89113;-63
2022/06/11 08:33:28;;;;;;;4.90;3.72;;;22.30;98.40;;;;;;6240974;27;89061;-63
2022/06/11 08:36:30;;;;;;;3.22;2.90;;;22.30;98.60;;;;;;6240767;28;90007;-64
2022/06/11 08:39:32;;;;;;;3.63;3.33;;;22.30;98.70;;;;;;6240238;28;89089;-64
2022/06/11 08:42:39;;;;;;;3.72;3.00;;;22.30;98.70;;;;;;6241052;28;87896;-64
2022/06/11 08:45:45;;;;;;;3.33;3.03;;;22.30;98.60;;;;;;6237808;28;89041;-64
2022/06/11 08:48:55;;;;;;;3.22;2.92;;;22.30;98.50;;;;;;6241336;27;89478;-64
2022/06/11 08:52:05;;;;;;;3.10;2.90;;;22.30;98.30;;;;;;6247263;27;89060;-64
2022/06/11 08:55:07;;;;;;;3.60;2.92;;;22.30;98.20;;;;;;6244607;27;89067;-64
2022/06/11 08:58:26;;;;;;;3.20;2.90;;;22.30;98.10;;;;;;6236639;27;88403;-63
2022/06/11 09:01:43;;;;;;;3.00;2.80;;;22.30;98.00;;;;;;6237576;28;89180;-64
2022/06/11 09:05:02;;;;;;;3.42;2.90;;;22.30;97.90;;;;;;6243889;28;89046;-63
2022/06/11 09:08:23;;;;;;;2.92;2.63;;;22.30;97.80;;;;;;6239122;28;89929;-63
2022/06/11 09:11:37;;;;;;;3.08;2.78;;;22.30;97.70;;;;;;6239853;28;89065;-63
2022/06/11 09:15:13;;;;;;;3.20;2.90;;;22.30;97.60;;;;;;6242725;28;89495;-64
2022/06/11 09:18:31;;;;;;;2.90;2.58;;;22.30;97.80;;;;;;6242383;28;88986;-64
2022/06/11 09:21:45;;;;;;;3.20;2.90;;;22.30;98.00;;;;;;6242197;28;89456;-64
2022/06/11 09:25:01;;;;;;;3.10;2.80;;;22.30;98.20;;;;;;6244889;27;89038;-64
2022/06/11 09:28:09;;;;;;;3.30;3.00;;;22.30;98.40;;;;;;6239820;27;89009;-64
2022/06/11 09:31:23;;;;;;;3.00;2.70;;;22.30;98.60;;;;;;6240611;28;88353;-64
2022/06/11 09:34:33;;;;;;;2.95;2.65;;;22.30;98.60;;;;;;6245586;28;89025;-64
2022/06/11 09:37:41;;;;;;;3.13;2.88;;;22.30;98.40;;;;;;6237558;28;88819;-63
2022/06/11 09:40:49;;;;;;;3.35;3.05;;;22.30;98.20;;;;;;6241114;27;90340;-63
2022/06/11 09:43:56;;;;;;;3.08;2.78;;;22.30;98.20;;;;;;6239101;28;89107;-64
2022/06/11 09:47:06;;;;;;;3.08;2.80;;;22.30;98.00;;;;;;6247604;27;89092;-63
2022/06/11 09:50:21;;;;;;;11.82;4.43;;;22.30;97.80;;;;;;6244221;27;89076;-64
2022/06/11 09:53:39;;;;;;;6.10;3.38;;;22.30;98.00;;;;;;6237402;27;89093;-64
2022/06/11 09:56:47;;;;;;;4.78;3.28;;;22.30;98.20;;;;;;6243951;27;88921;-64
2022/06/11 09:59:53;;;;;;;4.65;3.35;;;22.30;98.10;;;;;;6244073;28;90018;-63
2022/06/11 10:03:19;;;;;;;4.00;3.22;;;22.30;98.00;;;;;;6244883;28;87216;-64
2022/06/11 10:06:25;;;;;;;3.40;3.08;;;22.30;97.60;;;;;;6251458;27;88985;-64
2022/06/11 10:09:31;;;;;;;3.17;2.90;;;22.30;97.80;;;;;;6248398;28;89041;-64
2022/06/11 10:12:37;;;;;;;3.97;3.00;;;22.30;98.00;;;;;;6233900;28;89953;-64
2022/06/11 10:15:42;;;;;;;3.20;2.97;;;22.30;98.20;;;;;;6254726;27;89111;-64
2022/06/11 10:18:48;;;;;;;4.30;3.17;;;22.30;98.20;;;;;;6255912;27;89190;-64
2022/06/11 10:21:56;;;;;;;3.10;2.80;;;22.30;98.30;;;;;;6247094;27;88984;-63
2022/06/11 10:25:08;;;;;;;3.70;2.83;;;22.30;98.30;;;;;;6246767;27;89166;-63
2022/06/11 10:28:18;;;;;;;3.22;2.92;;;22.40;98.80;;;;;;6246112;27;89239;-63
2022/06/11 10:31:23;;;;;;;4.43;2.92;;;22.40;99.00;;;;;;6256907;27;89747;-64
2022/06/11 10:34:28;;;;;;;38.10;11.73;;;22.40;98.80;;;;;;6255833;27;88611;-64
2022/06/11 10:37:36;;;;;;;55.20;18.27;;;22.40;99.90;;;;;;6247591;27;89159;-63
2022/06/11 10:40:42;;;;;;;34.50;11.57;;;22.50;99.90;;;;;;6241003;27;88971;-61
2022/06/11 10:43:51;;;;;;;30.15;9.00;;;22.50;99.90;;;;;;6236190;27;90358;-65
2022/06/11 10:46:53;;;;;;;30.73;9.30;;;22.50;99.90;;;;;;6254065;27;89353;-64
2022/06/11 10:50:02;;;;;;;16.20;6.68;;;22.50;99.90;;;;;;6240424;27;89130;-64
2022/06/11 10:53:13;;;;;;;15.15;6.53;;;22.60;99.90;;;;;;6243367;27;89383;-64
2022/06/11 10:56:20;;;;;;;14.85;6.43;;;22.60;99.90;;;;;;6238931;28;89064;-64
2022/06/11 10:59:26;;;;;;;16.42;6.68;;;22.60;99.90;;;;;;6241965;27;89458;-64
2022/06/11 11:02:35;;;;;;;19.23;7.03;;;22.60;99.90;;;;;;6240786;27;88813;-64
2022/06/11 11:05:50;;;;;;;16.50;6.82;;;22.60;99.80;;;;;;6243515;27;88381;-64
2022/06/11 11:08:54;;;;;;;18.98;8.18;;;22.60;99.60;;;;;;6246244;28;89030;-65
2022/06/11 11:12:00;;;;;;;23.15;8.68;;;22.60;99.90;;;;;;6242294;27;89065;-64
2022/06/11 11:15:12;;;;;;;26.17;9.32;;;22.60;99.90;;;;;;6253108;27;88822;-64
2022/06/11 11:18:20;;;;;;;26.45;9.23;;;22.60;99.90;;;;;;6257319;27;89271;-64
2022/06/11 11:21:32;;;;;;;23.60;9.40;;;22.60;99.90;;;;;;6251593;27;89419;-65
2022/06/11 11:24:37;;;;;;;22.63;8.27;;;22.60;99.90;;;;;;6241335;27;89004;-65
2022/06/11 11:27:44;;;;;;;20.10;8.27;;;22.50;99.90;;;;;;6255909;27;89014;-64
2022/06/11 11:30:46;;;;;;;21.30;7.65;;;22.60;99.90;;;;;;6251831;27;88942;-65
2022/06/11 11:34:00;;;;;;;19.98;7.88;;;22.50;99.90;;;;;;6259760;27;89001;-65
2022/06/11 11:37:24;;;;;;;16.92;7.53;;;22.50;99.90;;;;;;6260497;27;87243;-65
2022/06/11 11:40:29;;;;;;;23.15;9.10;;;22.60;99.90;;;;;;6250179;27;89059;-65
2022/06/11 11:43:37;;;;;;;26.08;10.15;;;22.60;99.90;;;;;;6252323;27;89165;-65
2022/06/11 11:46:40;;;;;;;26.58;10.93;;;22.50;99.90;;;;;;6251393;27;89982;-64
2022/06/11 11:49:47;;;;;;;25.67;10.57;;;22.60;99.90;;;;;;6243417;27;89145;-64
2022/06/11 11:52:54;;;;;;;24.10;9.68;;;22.50;99.90;;;;;;6232189;27;88965;-65
2022/06/11 11:55:58;;;;;;;22.05;8.93;;;22.60;99.90;;;;;;6254527;27;89093;-65
2022/06/11 11:59:07;;;;;;;19.40;8.75;;;22.60;99.90;;;;;;6246125;27;89076;-65
2022/06/11 12:02:17;;;;;;;15.23;7.63;;;22.60;99.90;;;;;;6243628;27;89060;-65
2022/06/11 12:05:23;;;;;;;18.58;7.95;;;22.60;99.90;;;;;;6236703;27;89098;-65
2022/06/11 12:08:29;;;;;;;17.83;8.07;;;22.50;99.90;;;;;;6255856;27;88681;-65
2022/06/11 12:11:35;;;;;;;16.63;7.63;;;22.60;99.90;;;;;;6252526;27;89073;-65
2022/06/11 12:14:40;;;;;;;14.38;7.47;;;22.60;99.90;;;;;;6265404;27;89074;-64
2022/06/11 12:17:46;;;;;;;15.80;7.47;;;22.60;99.90;;;;;;6251205;27;90015;-65
2022/06/11 12:20:52;;;;;;;15.18;7.22;;;22.60;99.90;;;;;;6252042;27;89052;-65
2022/06/11 12:24:00;;;;;;;14.77;7.20;;;22.60;99.90;;;;;;6251728;27;89053;-65
2022/06/11 12:27:06;;;;;;;16.10;7.30;;;22.60;99.90;;;;;;6250812;27;89115;-65
2022/06/11 12:30:17;;;;;;;15.63;6.68;;;22.60;99.90;;;;;;6235559;27;89138;-64
2022/06/11 12:33:19;;;;;;;13.45;6.75;;;22.60;99.90;;;;;;6235538;28;89133;-65
2022/06/11 12:36:45;;;;;;;13.50;6.90;;;22.60;99.90;;;;;;6233301;28;89039;-65
2022/06/11 12:39:58;;;;;;;14.38;7.00;;;22.60;99.90;;;;;;6238544;28;88284;-65
2022/06/11 12:43:20;;;;;;;14.68;6.35;;;22.60;99.90;;;;;;6233209;28;89105;-65
2022/06/11 12:46:31;;;;;;;12.82;6.50;;;22.60;99.90;;;;;;6234262;28;89288;-64
2022/06/11 12:49:41;;;;;;;11.20;6.07;;;22.60;99.90;;;;;;6241041;28;91124;-65
2022/06/11 12:52:51;;;;;;;12.02;6.05;;;22.60;99.90;;;;;;6245220;28;87989;-65
2022/06/11 12:56:06;;;;;;;12.10;5.82;;;22.60;99.90;;;;;;6239803;28;89033;-65
2022/06/11 12:59:44;;;;;;;11.10;6.13;;;22.60;99.90;;;;;;6244599;27;89127;-65
2022/06/11 13:02:58;;;;;;;10.73;5.88;;;22.50;99.90;;;;;;6244294;28;89064;-65
2022/06/11 13:06:11;;;;;;;11.40;6.18;;;22.60;99.90;;;;;;6242541;28;89092;-65
2022/06/11 13:09:30;;;;;;;9.00;5.22;;;22.60;99.90;;;;;;6243288;28;89016;-65
2022/06/11 13:12:51;;;;;;;10.77;5.20;;;22.50;99.80;;;;;;6240820;27;88368;-65
2022/06/11 13:16:00;;;;;;;9.95;5.50;;;22.60;99.80;;;;;;6242807;28;89052;-65
2022/06/11 13:19:16;;;;;;;11.40;5.82;;;22.60;99.80;;;;;;6243682;28;89072;-64
2022/06/11 13:22:27;;;;;;;10.38;5.85;;;22.60;99.70;;;;;;6240039;27;88868;-64
2022/06/11 13:25:35;;;;;;;9.48;5.20;;;22.50;99.60;;;;;;6248743;27;88032;-64
2022/06/11 13:28:56;;;;;;;9.93;5.43;;;22.60;99.60;;;;;;6244966;27;89548;-65
2022/06/11 13:32:06;;;;;;;10.07;5.53;;;22.60;99.90;;;;;;6234962;27;87925;-65
2022/06/11 13:35:25;;;;;;;8.43;5.10;;;22.60;99.90;;;;;;6258860;27;87846;-64
2022/06/11 13:38:49;;;;;;;11.23;5.32;;;22.60;99.90;;;;;;6248253;27;87997;-65
2022/06/11 13:41:59;;;;;;;10.63;5.65;;;22.70;99.90;;;;;;6241280;27;89007;-65
2022/06/11 13:45:23;;;;;;;9.60;4.93;;;22.70;99.90;;;;;;6251207;27;88212;-64
2022/06/11 13:48:38;;;;;;;8.35;4.60;;;22.70;99.90;;;;;;6255101;27;90659;-65
2022/06/11 13:51:43;;;;;;;9.00;4.65;;;22.70;99.40;;;;;;6236891;27;87870;-64
2022/06/11 13:58:32;;;;;;;7.45;4.65;;;22.70;98.60;;;;;;6241943;27;87297;-65
2022/06/11 14:01:50;;;;;;;8.00;4.72;;;22.70;98.40;;;;;;6237887;27;89149;-65
2022/06/11 14:04:56;;;;;;;8.18;4.53;;;22.70;98.30;;;;;;6253963;27;89076;-64
2022/06/11 14:07:58;;;;;;;7.35;4.50;;;22.70;98.20;;;;;;6245673;27;89057;-65
2022/06/11 14:11:02;;;;;;;6.22;4.10;;;22.70;98.10;;;;;;6242429;27;88245;-66
2022/06/11 14:14:26;;;;;;;6.50;4.40;;;22.70;97.70;;;;;;6245343;27;89166;-66
2022/06/11 14:17:47;;;;;;;7.68;4.43;;;22.70;97.70;;;;;;6256055;27;88330;-65
2022/06/11 14:20:51;;;;;;;7.05;4.38;;;22.70;97.60;;;;;;6257122;27;89088;-66
2022/06/11 14:23:53;;;;;;;6.63;4.65;;;22.70;97.50;;;;;;6252752;27;89263;-66
2022/06/11 14:26:56;;;;;;;7.88;4.55;;;22.70;97.60;;;;;;6241513;27;90514;-65
2022/06/11 14:30:20;;;;;;;6.07;4.00;;;22.70;97.60;;;;;;6234575;27;88995;-65
2022/06/11 14:33:27;;;;;;;5.85;4.10;;;22.60;97.60;;;;;;6254407;27;88367;-66
2022/06/11 14:36:31;;;;;;;6.10;4.32;;;22.60;97.60;;;;;;6238106;27;89054;-66
2022/06/11 14:39:36;;;;;;;6.60;4.38;;;22.60;97.60;;;;;;6237158;27;90228;-65
2022/06/11 14:43:05;;;;;;;6.10;4.28;;;22.60;97.60;;;;;;6246838;27;89070;-65
2022/06/11 14:46:45;;;;;;;6.35;4.13;;;22.60;97.60;;;;;;6245320;28;89123;-65
2022/06/11 14:49:51;;;;;;;7.10;4.45;;;22.60;97.60;;;;;;6241223;27;88359;-65
2022/06/11 14:52:55;;;;;;;6.22;4.00;;;22.60;97.40;;;;;;6243468;27;89038;-65
2022/06/11 14:56:09;;;;;;;6.20;3.92;;;22.60;97.40;;;;;;6240463;27;89012;-65
2022/06/11 14:59:47;;;;;;;7.25;4.07;;;22.60;97.40;;;;;;6238657;28;90017;-66
2022/06/11 15:03:37;;;;;;;5.35;3.83;;;22.60;97.30;;;;;;6241903;28;89064;-65
2022/06/11 15:06:44;;;;;;;5.10;3.67;;;22.60;97.30;;;;;;6246090;27;87975;-66
2022/06/11 15:10:04;;;;;;;5.07;3.80;;;22.60;97.20;;;;;;6236241;28;89712;-65
2022/06/11 15:13:22;;;;;;;5.63;3.63;;;22.60;97.20;;;;;;6236404;28;89578;-66
2022/06/11 15:16:27;;;;;;;6.95;4.00;;;22.60;97.10;;;;;;6236439;27;88903;-66
2022/06/11 15:19:32;;;;;;;5.30;3.60;;;22.60;97.20;;;;;;6242816;27;87853;-66
2022/06/11 15:22:40;;;;;;;4.35;3.67;;;22.60;97.30;;;;;;6242598;27;88396;-66
2022/06/11 15:25:45;;;;;;;5.55;4.00;;;22.60;97.30;;;;;;6240600;27;89283;-66
2022/06/11 15:29:08;;;;;;;5.85;3.67;;;22.60;97.30;;;;;;6246542;28;89307;-66
2022/06/11 15:32:17;;;;;;;4.97;3.80;;;22.60;97.20;;;;;;6249174;27;90529;-65
2022/06/11 15:35:31;;;;;;;5.13;3.58;;;22.60;97.20;;;;;;6249053;27;89055;-64
2022/06/11 15:38:39;;;;;;;4.00;3.50;;;22.60;97.30;;;;;;6240257;27;87984;-65
2022/06/11 15:41:44;;;;;;;5.68;3.80;;;22.60;97.20;;;;;;6240659;27;87778;-65
2022/06/11 15:44:47;;;;;;;5.07;3.80;;;22.60;97.10;;;;;;6253066;27;89010;-65
2022/06/11 15:47:56;;;;;;;5.43;3.78;;;22.60;97.00;;;;;;6252032;27;89234;-65
2022/06/11 15:51:01;;;;;;;5.30;3.90;;;22.60;96.90;;;;;;6251390;27;89232;-65
2022/06/11 15:57:34;;;;;;;4.40;3.65;;;22.60;96.50;;;;;;6241055;27;87807;-65
2022/06/11 16:00:38;;;;;;;4.68;3.25;;;22.60;96.40;;;;;;6239211;27;88986;-66
2022/06/11 16:03:48;;;;;;;4.53;3.40;;;22.60;97.90;;;;;;6242297;27;89477;-66
2022/06/11 16:06:59;;;;;;;4.72;3.47;;;22.60;97.80;;;;;;6237810;27;89104;-64
2022/06/11 16:10:02;;;;;;;4.40;3.05;;;22.70;97.50;;;;;;6241960;27;89129;-66
2022/06/11 16:13:05;;;;;;;5.32;3.47;;;22.70;97.40;;;;;;6241100;27;89284;-66
2022/06/11 16:16:22;;;;;;;4.35;3.13;;;22.70;97.40;;;;;;6248228;27;89388;-66
2022/06/11 16:19:26;;;;;;;4.20;3.40;;;22.70;97.40;;;;;;6233278;27;89139;-66
2022/06/11 16:22:30;;;;;;;4.60;3.45;;;22.60;97.20;;;;;;6245586;27;89271;-66
2022/06/11 16:25:38;;;;;;;4.50;3.63;;;22.70;97.20;;;;;;6250384;27;88234;-66
2022/06/11 16:28:42;;;;;;;4.82;3.88;;;22.70;97.10;;;;;;6238272;27;89191;-65